General Aviation Weather

Text Reports

Enter one or more of the following location identifiers separated by a space:

Zip Code, Four-Character ICAO or Three-Character IATA airport codes.

METAR - Aviation Routine Weather Report
K1M4 - Haleyville, Alabama
Updated at 5:56 PM GMT on May 28, 2015 (12:56 PM CDT):
METAR K1M4 281756Z AUTO 00000KT 10SM SCT013 BKN020 23/21 A3022 RMK AO2 56005 T02330205 10233 20183 SLP243
TAF - Terminal Area Forecast
K1M4 - Haleyville, Alabama
Updated at 5:56 PM GMT on May 28, 2015 (12:56 PM CDT):
No TAF is currently available for this location.
Decoded:
No decoded TAF is available.
PIREP - Pilot Weather Report
K1M4 - Haleyville, Alabama
Updated at 5:56 PM GMT on May 28, 2015 (12:56 PM CDT):
No PIREP is currently available for this location.
AIRMET - Airmens Meteorological Information
K1M4 - Haleyville, Alabama
Updated at 5:56 PM GMT on May 28, 2015 (12:56 PM CDT):
No AIRMET is currently available for this location.
SIGMET - Significant Meteorological Information
K1M4 - Haleyville, Alabama
Updated at 5:56 PM GMT on May 28, 2015 (12:56 PM CDT):
No SIGMET is currently available for this location.
NOTAM - Notice to Airmen
K1M4 - Haleyville, Alabama
Updated at 5:56 PM GMT on May 28, 2015 (12:56 PM CDT):
No NOTAM is currently available for this location.
Forecast Area
K1M4 - Haleyville, Alabama
Updated at 5:56 PM GMT on May 28, 2015 (12:56 PM CDT):
No NOTAM is currently available for this location.
Aviation Weather Maps